Time;durP1;ratioP1;P1;durP2;ratioP2;P2;SDS_P1;SDS_P2;PMS_P1;PMS_P2;Temp;Humidity;BMP_temperature;BMP_pressure;BME280_temperature;BME280_humidity;BME280_pressure;Samples;Min_cycle;Max_cycle;Signal;HPM_P1;HPM_P2
2022/08/24 00:01:14;;;;;;;72.80;12.18;;;;;;;21.07;76.44;98154.78;1764219;78;20904;-65
2022/08/24 00:03:42;;;;;;;85.72;13.32;;;;;;;21.05;76.62;98158.43;1770613;78;20915;-65
2022/08/24 00:06:12;;;;;;;68.40;12.35;;;;;;;21.04;76.71;98156.81;1761567;79;20923;-67
2022/08/24 00:08:40;;;;;;;73.02;12.35;;;;;;;21.05;76.64;98150.27;1742248;80;20872;-65
2022/08/24 00:11:07;;;;;;;84.42;12.68;;;;;;;21.00;76.62;98149.94;1742395;81;21241;-64
2022/08/24 00:13:34;;;;;;;74.77;12.93;;;;;;;20.99;76.65;98151.63;1741551;82;20924;-64
2022/08/24 00:16:01;;;;;;;74.65;12.65;;;;;;;20.97;76.76;98144.39;1702539;82;20956;-66
2022/08/24 00:18:28;;;;;;;83.22;12.53;;;;;;;20.95;76.56;98136.59;1758810;78;21112;-66
2022/08/24 00:20:54;;;;;;;82.75;12.88;;;;;;;20.95;76.62;98142.03;1763488;79;21014;-68
2022/08/24 00:23:21;;;;;;;67.22;11.30;;;;;;;20.93;76.54;98140.80;1774803;80;21105;-65
2022/08/24 00:25:47;;;;;;;90.05;14.30;;;;;;;20.94;76.42;98141.00;1764968;80;20963;-64
2022/08/24 00:28:14;;;;;;;67.42;11.88;;;;;;;20.90;76.31;98142.87;1766400;79;21056;-66
2022/08/24 00:30:41;;;;;;;74.50;12.00;;;;;;;20.86;76.32;98150.97;1747185;80;21010;-68
2022/08/24 00:33:07;;;;;;;67.87;12.15;;;;;;;20.86;76.18;98141.44;1763544;80;20931;-67
2022/08/24 00:35:34;;;;;;;66.12;12.20;;;;;;;20.85;76.11;98139.05;1765745;80;21237;-65
2022/08/24 00:38:00;;;;;;;71.17;12.28;;;;;;;20.86;75.91;98140.64;1745360;80;21046;-67
2022/08/24 00:40:32;;;;;;;65.17;10.88;;;;;;;20.84;75.76;98141.57;1756586;80;20998;-65
2022/08/24 00:43:02;;;;;;;66.95;11.73;;;;;;;20.82;75.66;98145.22;1760052;79;20959;-66
2022/08/24 00:45:27;;;;;;;73.28;12.15;;;;;;;20.82;75.49;98141.14;1760112;80;21458;-67
2022/08/24 00:47:58;;;;;;;71.35;10.35;;;;;;;20.81;75.40;98141.70;1747166;78;21987;-67
2022/08/24 00:50:42;;;;;;;66.07;10.68;;;;;;;20.81;75.15;98145.78;1753304;78;20887;-63
2022/08/24 00:53:14;;;;;;;57.80;11.08;;;;;;;20.80;75.04;98140.11;1763989;80;20916;-66
2022/08/24 00:55:47;;;;;;;62.80;10.58;;;;;;;20.78;74.88;98138.88;1755638;79;21550;-67
2022/08/24 00:58:19;;;;;;;64.75;10.88;;;;;;;20.78;74.95;98130.72;1772044;79;21038;-64
2022/08/24 01:00:56;;;;;;;64.17;10.85;;;;;;;20.79;74.82;98132.31;1771915;79;21206;-62
2022/08/24 01:03:24;;;;;;;66.85;11.28;;;;;;;20.79;74.98;98120.06;1756530;79;20955;-65
2022/08/24 01:05:51;;;;;;;57.25;10.90;;;;;;;20.77;75.03;98125.87;1776836;79;21050;-64
2022/08/24 01:08:17;;;;;;;58.28;10.98;;;;;;;20.74;75.05;98133.37;1757574;80;21466;-63
2022/08/24 01:10:48;;;;;;;66.55;11.70;;;;;;;20.71;74.90;98119.66;1760674;79;21448;-65
2022/08/24 01:13:14;;;;;;;68.07;12.45;;;;;;;20.69;74.83;98120.02;1747697;80;21696;-66
2022/08/24 01:15:44;;;;;;;59.25;10.72;;;;;;;20.66;74.96;98125.37;1759394;79;21521;-64
2022/08/24 01:21:10;;;;;;;66.00;11.57;;;;;;;20.60;75.11;98131.67;1756643;80;20948;-67
2022/08/24 01:23:46;;;;;;;65.92;10.35;;;;;;;20.57;75.26;98130.20;1749071;80;20876;-67
2022/08/24 01:26:17;;;;;;;60.52;11.83;;;;;;;20.55;75.35;98137.94;1754612;78;21958;-63
2022/08/24 01:28:46;;;;;;;72.08;12.37;;;;;;;20.52;75.47;98137.27;1767462;78;20864;-67
2022/08/24 01:31:12;;;;;;;65.52;10.88;;;;;;;20.45;75.44;98140.05;1780304;79;21012;-65
2022/08/24 01:33:39;;;;;;;76.75;10.93;;;;;;;20.43;75.57;98139.61;1753368;80;20952;-64
2022/08/24 01:36:21;;;;;;;57.98;10.20;;;;;;;20.40;75.71;98138.94;1737774;81;20855;-65
2022/08/24 01:38:47;;;;;;;60.98;10.78;;;;;;;20.36;75.63;98139.43;1736827;80;21063;-64
2022/08/24 01:41:14;;;;;;;59.15;10.43;;;;;;;20.34;75.71;98134.12;1737271;80;21065;-66
2022/08/24 01:43:40;;;;;;;62.33;11.73;;;;;;;20.34;75.79;98131.40;1738822;80;21527;-66
2022/08/24 01:46:07;;;;;;;59.58;9.68;;;;;;;20.35;75.71;98128.31;1773041;79;21416;-65
2022/08/24 01:48:33;;;;;;;62.55;10.18;;;;;;;20.35;75.70;98122.08;1758902;80;21007;-65
2022/08/24 01:51:00;;;;;;;50.35;10.23;;;;;;;20.33;75.62;98123.80;1763597;78;21222;-64
2022/08/24 01:53:27;;;;;;;58.90;10.43;;;;;;;20.29;75.61;98127.02;1764405;80;20844;-64
2022/08/24 01:55:53;;;;;;;53.28;9.08;;;;;;;20.25;75.72;98120.70;1765045;78;20931;-67
2022/08/24 01:58:21;;;;;;;56.80;10.25;;;;;;;20.24;75.85;98123.19;1767913;79;21019;-66
2022/08/24 02:00:47;;;;;;;50.43;9.83;;;;;;;20.22;75.88;98115.95;1752576;79;20956;-65
2022/08/24 02:03:14;;;;;;;55.08;10.13;;;;;;;20.20;75.94;98117.41;1761703;80;21238;-63
2022/08/24 02:05:42;;;;;;;54.08;10.78;;;;;;;20.14;76.11;98119.58;1768261;79;21015;-64
2022/08/24 02:08:10;;;;;;;50.48;9.98;;;;;;;20.08;76.31;98130.50;1763294;80;21014;-64
2022/08/24 02:10:36;;;;;;;48.85;10.00;;;;;;;20.05;76.34;98129.04;1762154;78;20924;-64
2022/08/24 02:13:03;;;;;;;51.58;9.33;;;;;;;20.02;76.52;98135.96;1766812;79;21014;-63
2022/08/24 02:15:33;;;;;;;44.75;9.23;;;;;;;20.00;76.48;98136.88;1772634;79;21102;-65
2022/08/24 02:18:03;;;;;;;49.00;9.60;;;;;;;19.99;76.27;98143.47;1771915;79;21423;-64
2022/08/24 02:20:30;;;;;;;51.53;10.00;;;;;;;19.99;76.28;98144.84;1750493;80;20881;-66
2022/08/24 02:22:56;;;;;;;49.20;8.78;;;;;;;19.98;76.12;98145.95;1764166;79;20943;-66
2022/08/24 02:25:23;;;;;;;54.38;10.08;;;;;;;19.94;76.17;98154.59;1759294;79;20888;-66
2022/08/24 02:27:50;;;;;;;48.80;9.68;;;;;;;19.90;75.94;98149.64;1763391;80;21209;-64
2022/08/24 02:30:17;;;;;;;48.25;9.85;;;;;;;19.88;75.85;98161.40;1772257;78;20846;-64
2022/08/24 02:32:44;;;;;;;43.80;8.63;;;;;;;19.84;75.79;98151.01;1728972;81;20912;-66
2022/08/24 02:35:10;;;;;;;48.58;9.03;;;;;;;19.82;75.79;98147.85;1742450;82;21506;-66
2022/08/24 02:50:26;;;;;;;41.60;8.78;;;;;;;19.90;75.04;98166.51;1721278;82;20917;-64
2022/08/24 02:52:53;;;;;;;37.13;7.92;;;;;;;19.91;74.98;98164.80;1743107;81;21218;-65
2022/08/24 02:55:19;;;;;;;52.33;8.95;;;;;;;19.91;74.87;98170.23;1736341;80;20880;-67
2022/08/24 02:57:47;;;;;;;47.45;7.35;;;;;;;19.87;74.89;98165.27;1741649;80;21404;-64
2022/08/24 03:00:16;;;;;;;36.40;7.90;;;;;;;19.81;74.90;98165.88;1743351;80;20901;-66
2022/08/24 03:02:44;;;;;;;55.15;8.95;;;;;;;19.81;75.00;98175.38;1740097;81;21517;-66
2022/08/24 03:05:31;;;;;;;51.45;8.45;;;;;;;19.79;74.98;98182.50;1755250;80;21243;-66
2022/08/24 03:07:58;;;;;;;48.60;9.55;;;;;;;19.77;75.05;98188.86;1753193;80;20971;-63
2022/08/24 03:10:25;;;;;;;45.00;8.68;;;;;;;19.77;74.74;98172.55;1757178;80;20899;-65
2022/08/24 03:12:51;;;;;;;46.92;8.60;;;;;;;19.76;74.90;98169.59;1764930;80;21065;-66
2022/08/24 03:15:21;;;;;;;51.42;8.80;;;;;;;19.77;74.74;98175.27;1753913;80;21498;-65
2022/08/24 03:17:49;;;;;;;40.98;8.15;;;;;;;19.78;74.75;98174.14;1756752;80;21152;-63
2022/08/24 03:20:18;;;;;;;48.80;8.65;;;;;;;19.77;74.74;98154.33;1757728;80;21430;-65
2022/08/24 03:22:45;;;;;;;45.95;9.20;;;;;;;19.76;74.76;98161.45;1725369;82;21036;-66
2022/08/24 03:25:13;;;;;;;44.42;8.45;;;;;;;19.73;74.86;98156.72;1726500;82;21636;-63
2022/08/24 03:27:40;;;;;;;40.48;7.83;;;;;;;19.72;74.90;98168.16;1768983;80;21079;-63
2022/08/24 03:30:11;;;;;;;47.08;7.90;;;;;;;19.66;75.00;98171.47;1756592;80;21101;-62
2022/08/24 03:32:40;;;;;;;47.83;8.15;;;;;;;19.61;75.11;98173.06;1757898;80;20974;-62
2022/08/24 03:35:09;;;;;;;42.60;7.85;;;;;;;19.56;75.21;98176.02;1756930;80;21060;-66
2022/08/24 03:37:36;;;;;;;34.92;7.80;;;;;;;19.53;75.41;98164.47;1754853;80;21114;-64
2022/08/24 03:40:05;;;;;;;40.12;8.20;;;;;;;19.51;75.52;98177.05;1755944;80;21065;-67
2022/08/24 03:42:32;;;;;;;42.23;7.90;;;;;;;19.48;75.55;98175.02;1758129;80;21135;-63
2022/08/24 03:44:59;;;;;;;48.13;8.43;;;;;;;19.46;75.86;98176.48;1756903;80;20999;-64
2022/08/24 03:47:25;;;;;;;37.73;8.53;;;;;;;19.43;76.04;98185.34;1758885;80;21026;-63
2022/08/24 03:49:52;;;;;;;34.85;7.40;;;;;;;19.42;75.91;98181.03;1755211;80;21081;-63
2022/08/24 03:52:19;;;;;;;28.62;6.87;;;;;;;19.41;75.89;98184.87;1759749;80;21054;-66
2022/08/24 03:54:46;;;;;;;37.85;7.92;;;;;;;19.40;75.85;98188.17;1751343;80;22082;-66
2022/08/24 03:57:13;;;;;;;43.63;8.00;;;;;;;19.42;75.65;98187.83;1761071;80;21055;-65
2022/08/24 03:59:40;;;;;;;37.30;7.92;;;;;;;19.42;75.71;98187.83;1759270;80;20903;-66
2022/08/24 04:02:08;;;;;;;36.33;7.17;;;;;;;19.45;75.64;98185.79;1754878;80;20898;-67
2022/08/24 04:04:35;;;;;;;34.98;7.72;;;;;;;19.49;76.13;98194.82;1763116;80;20948;-65
2022/08/24 04:07:03;;;;;;;35.78;7.60;;;;;;;19.53;76.03;98195.71;1751234;80;21098;-65
2022/08/24 04:09:30;;;;;;;33.63;7.50;;;;;;;19.54;75.91;98194.59;1755812;80;20930;-66
2022/08/24 04:11:56;;;;;;;31.57;7.20;;;;;;;19.55;75.73;98190.72;1766404;80;20840;-64
2022/08/24 04:14:24;;;;;;;27.37;7.12;;;;;;;19.53;75.55;98197.06;1754147;80;20991;-66
2022/08/24 04:16:53;;;;;;;30.30;6.78;;;;;;;19.55;75.81;98202.95;1748123;80;20931;-64
2022/08/24 04:19:22;;;;;;;28.02;7.05;;;;;;;19.56;75.88;98197.75;1753276;80;22082;-64
2022/08/24 04:21:48;;;;;;;29.23;6.60;;;;;;;19.56;75.65;98190.95;1756983;80;21022;-66
2022/08/24 04:24:16;;;;;;;30.02;7.45;;;;;;;19.59;75.37;98188.92;1764297;80;20991;-64
2022/08/24 04:26:43;;;;;;;33.55;7.70;;;;;;;19.63;75.17;98188.45;1761171;80;20892;-65
2022/08/24 04:29:10;;;;;;;36.23;7.62;;;;;;;19.66;75.00;98176.91;1708089;83;21497;-66
2022/08/24 04:31:40;;;;;;;32.40;7.72;;;;;;;19.68;74.95;98180.86;1752049;80;21093;-63
2022/08/24 04:34:07;;;;;;;39.00;7.58;;;;;;;19.70;74.81;98182.66;1719186;81;20887;-63
2022/08/24 04:36:34;;;;;;;43.17;7.40;;;;;;;19.70;74.56;98177.22;1733799;81;20907;-65
2022/08/24 04:39:01;;;;;;;30.48;6.92;;;;;;;19.71;74.62;98187.53;1759447;80;21399;-64
2022/08/24 04:41:34;;;;;;;30.92;7.30;;;;;;;19.75;74.37;98188.41;1757431;78;20873;-65
2022/08/24 04:44:01;;;;;;;36.38;6.97;;;;;;;19.76;74.17;98184.55;1761443;80;21216;-64
2022/08/24 04:46:28;;;;;;;32.00;7.05;;;;;;;19.81;74.36;98193.81;1724483;81;21013;-65
2022/08/24 04:48:55;;;;;;;29.20;7.05;;;;;;;19.86;74.59;98190.86;1729184;80;21004;-68
2022/08/24 04:51:21;;;;;;;25.82;6.58;;;;;;;19.92;74.48;98200.37;1697848;82;21492;-63
2022/08/24 04:53:49;;;;;;;37.88;6.87;;;;;;;19.95;74.37;98198.30;1722873;82;21533;-62
2022/08/24 04:56:22;;;;;;;35.33;7.15;;;;;;;19.98;74.63;98192.17;1725546;80;21068;-65
2022/08/24 04:58:51;;;;;;;28.70;6.12;;;;;;;20.03;74.28;98191.92;1725836;81;20958;-64
2022/08/24 05:01:21;;;;;;;29.57;6.47;;;;;;;20.07;73.61;98198.25;1726641;81;20905;-66
2022/08/24 05:03:49;;;;;;;28.07;6.45;;;;;;;20.10;73.54;98205.72;1714263;82;21003;-65
2022/08/24 05:06:18;;;;;;;30.35;6.33;;;;;;;20.14;73.23;98199.80;1730165;81;21685;-65
2022/08/24 05:08:46;;;;;;;32.75;6.97;;;;;;;20.19;73.09;98200.91;1714028;81;21280;-64
2022/08/24 05:11:16;;;;;;;31.52;6.53;;;;;;;20.26;72.78;98203.85;1730047;81;21093;-63
2022/08/24 05:13:44;;;;;;;22.07;6.00;;;;;;;20.32;72.68;98208.48;1719763;81;21509;-63
2022/08/24 05:16:14;;;;;;;26.68;6.20;;;;;;;20.35;72.55;98201.76;1730591;81;21019;-63
2022/08/24 05:18:41;;;;;;;29.52;7.28;;;;;;;20.41;72.30;98200.38;1726343;80;21524;-63
2022/08/24 05:21:11;;;;;;;28.57;6.70;;;;;;;20.45;72.15;98197.73;1730772;81;21142;-63
2022/08/24 05:23:39;;;;;;;25.97;6.90;;;;;;;20.48;71.87;98198.97;1725872;81;20996;-63
2022/08/24 05:26:14;;;;;;;25.80;6.70;;;;;;;20.52;71.94;98197.92;1706285;81;21172;-65
2022/08/24 05:28:42;;;;;;;23.70;5.78;;;;;;;20.57;71.97;98196.30;1724315;82;20955;-63
2022/08/24 05:31:13;;;;;;;35.85;6.20;;;;;;;20.63;71.72;98191.41;1719183;80;21008;-63
2022/08/24 05:33:40;;;;;;;29.00;6.17;;;;;;;20.68;71.67;98192.51;1715745;82;21800;-64
2022/08/24 05:36:23;;;;;;;24.95;6.12;;;;;;;20.74;71.26;98195.17;1714582;81;37389;-64
2022/08/24 05:38:53;;;;;;;26.37;5.95;;;;;;;20.80;71.21;98196.48;1715205;82;21015;-63
2022/08/24 05:41:20;;;;;;;20.00;6.12;;;;;;;20.89;71.26;98199.24;1698890;81;21091;-64
2022/08/24 05:43:46;;;;;;;28.60;5.87;;;;;;;20.97;70.83;98196.13;1708777;81;21006;-63
2022/08/24 05:46:13;;;;;;;23.73;6.45;;;;;;;21.03;70.87;98200.17;1725196;80;21232;-63
2022/08/24 05:48:40;;;;;;;29.85;6.22;;;;;;;21.09;70.82;98196.85;1733882;81;21515;-64
2022/08/24 05:51:07;;;;;;;23.75;5.67;;;;;;;21.17;70.60;98201.90;1746381;80;21145;-65
2022/08/24 05:53:37;;;;;;;28.05;6.00;;;;;;;21.26;70.37;98202.50;1750663;80;21063;-65
2022/08/24 05:56:12;;;;;;;28.23;6.30;;;;;;;21.35;69.79;98202.29;1728785;80;21529;-64
2022/08/24 05:58:38;;;;;;;26.75;5.95;;;;;;;21.45;69.73;98201.75;1751511;80;21110;-68
2022/08/24 06:01:12;;;;;;;28.92;6.28;;;;;;;21.56;69.27;98210.37;1735165;81;20918;-64
2022/08/24 06:03:39;;;;;;;27.87;5.67;;;;;;;21.62;68.97;98208.92;1752314;80;20975;-66
2022/08/24 06:06:08;;;;;;;26.15;6.22;;;;;;;21.71;68.67;98212.27;1736168;80;21055;-66
2022/08/24 06:08:37;;;;;;;22.70;5.80;;;;;;;21.77;68.53;98218.20;1746218;80;21010;-62
2022/08/24 06:11:05;;;;;;;25.68;5.33;;;;;;;21.83;68.44;98222.81;1738417;80;21106;-67
2022/08/24 06:13:32;;;;;;;26.85;6.37;;;;;;;21.89;68.19;98220.83;1742954;80;20979;-65
2022/08/24 06:16:10;;;;;;;19.65;5.55;;;;;;;21.96;67.84;98222.91;1761797;80;20931;-67
2022/08/24 06:18:40;;;;;;;26.85;5.87;;;;;;;22.01;67.35;98222.63;1701093;82;21027;-65
2022/08/24 06:21:13;;;;;;;23.40;6.37;;;;;;;22.07;67.13;98223.92;1696779;83;20968;-65
2022/08/24 06:23:40;;;;;;;23.18;5.22;;;;;;;22.09;66.95;98224.36;1747237;80;21278;-65
2022/08/24 06:28:52;;;;;;;21.93;5.50;;;;;;;22.21;67.14;98224.20;1746265;81;20970;-66
2022/08/24 06:31:19;;;;;;;19.60;4.70;;;;;;;22.26;66.95;98226.62;1750875;81;20986;-66
2022/08/24 06:33:46;;;;;;;24.45;5.33;;;;;;;22.34;67.37;98231.07;1747912;80;21008;-66
2022/08/24 06:36:13;;;;;;;28.95;6.28;;;;;;;22.44;67.22;98231.29;1741861;80;21664;-66
2022/08/24 06:38:39;;;;;;;36.20;6.50;;;;;;;22.55;66.97;98224.64;1747817;80;21093;-66
2022/08/24 06:41:07;;;;;;;29.07;5.70;;;;;;;22.67;66.54;98232.70;1740767;81;21069;-67
2022/08/24 06:43:35;;;;;;;20.60;5.62;;;;;;;22.78;65.67;98236.39;1741727;81;20980;-66
2022/08/24 06:46:05;;;;;;;24.10;5.50;;;;;;;22.85;65.33;98232.41;1720642;80;21119;-65
2022/08/24 06:48:33;;;;;;;23.22;5.97;;;;;;;22.94;65.52;98237.05;1742702;81;21557;-66
2022/08/24 06:51:00;;;;;;;37.25;5.95;;;;;;;23.01;65.00;98227.61;1732194;80;20930;-66
2022/08/24 06:53:27;;;;;;;23.22;5.05;;;;;;;23.09;64.56;98237.50;1741845;81;21137;-66
2022/08/24 06:55:57;;;;;;;24.85;6.10;;;;;;;23.14;64.72;98239.94;1748539;80;21465;-69
2022/08/24 06:58:25;;;;;;;22.27;5.10;;;;;;;23.21;64.79;98238.45;1694377;81;21047;-65
2022/08/24 07:00:51;;;;;;;30.90;6.22;;;;;;;23.28;64.83;98237.99;1717192;82;21238;-66
2022/08/24 07:03:19;;;;;;;26.60;5.53;;;;;;;23.36;64.55;98238.92;1723009;82;21034;-68
2022/08/24 07:05:53;;;;;;;27.75;5.33;;;;;;;23.43;64.14;98241.77;1725134;82;20973;-64
2022/08/24 07:08:28;;;;;;;25.77;5.25;;;;;;;23.45;64.53;98240.81;1672234;83;21107;-65
2022/08/24 07:11:01;;;;;;;33.48;5.72;;;;;;;23.52;64.50;98243.66;1708042;81;21130;-63
2022/08/24 07:13:32;;;;;;;27.10;5.85;;;;;;;23.59;64.64;98245.91;1717317;81;21188;-63
2022/08/24 07:15:59;;;;;;;24.67;5.97;;;;;;;23.65;63.83;98243.62;1735504;81;21510;-64
2022/08/24 07:18:27;;;;;;;25.57;6.45;;;;;;;23.74;63.76;98249.64;1729237;80;21087;-65
2022/08/24 07:20:54;;;;;;;23.80;6.08;;;;;;;23.79;63.57;98247.92;1736063;79;21034;-66
2022/08/24 07:23:23;;;;;;;23.20;5.95;;;;;;;23.86;63.28;98241.78;1726630;81;20964;-66
2022/08/24 07:25:50;;;;;;;33.85;6.50;;;;;;;23.93;63.17;98248.11;1751828;80;21173;-65
2022/08/24 07:28:19;;;;;;;28.32;5.25;;;;;;;24.02;63.10;98247.28;1747604;79;21470;-64
2022/08/24 07:30:45;;;;;;;30.95;5.75;;;;;;;24.12;62.53;98250.73;1756978;79;20896;-64
2022/08/24 07:33:13;;;;;;;30.02;6.37;;;;;;;24.23;61.97;98250.30;1760425;79;21141;-65
2022/08/24 07:35:41;;;;;;;27.15;6.17;;;;;;;24.32;62.41;98250.80;1761698;79;21528;-66
2022/08/24 07:38:08;;;;;;;26.80;6.28;;;;;;;24.42;62.39;98259.69;1780196;79;21528;-66
2022/08/24 07:40:36;;;;;;;22.87;5.22;;;;;;;24.54;61.61;98259.23;1716338;80;21162;-67
2022/08/24 07:43:03;;;;;;;21.60;6.05;;;;;;;24.64;61.30;98253.06;1746624;80;21083;-66
2022/08/24 07:45:33;;;;;;;21.80;6.17;;;;;;;24.74;61.03;98253.76;1732729;79;21201;-66
2022/08/24 07:48:01;;;;;;;36.90;6.17;;;;;;;24.82;61.06;98258.19;1746352;80;21431;-65
2022/08/24 07:50:32;;;;;;;28.83;5.37;;;;;;;24.89;60.44;98254.94;1758536;80;22274;-65
2022/08/24 07:52:59;;;;;;;29.02;5.47;;;;;;;25.00;60.01;98259.12;1755548;79;21388;-65
2022/08/24 07:55:26;;;;;;;25.50;5.60;;;;;;;25.09;58.73;98251.37;1710599;81;20917;-66
2022/08/24 07:57:53;;;;;;;33.45;6.08;;;;;;;25.18;57.62;98255.17;1761318;79;21035;-67
2022/08/24 08:00:20;;;;;;;31.07;6.25;;;;;;;25.26;57.73;98260.90;1770238;79;21169;-66
2022/08/24 08:02:49;;;;;;;24.10;5.85;;;;;;;25.31;57.46;98261.34;1768661;79;21401;-66
2022/08/24 08:05:21;;;;;;;27.87;6.30;;;;;;;25.41;57.53;98260.64;1766891;79;20857;-67
2022/08/24 08:07:51;;;;;;;28.75;5.72;;;;;;;25.52;56.63;98256.62;1753537;79;21110;-65
2022/08/24 08:10:18;;;;;;;23.18;5.47;;;;;;;25.60;55.60;98260.39;1739041;80;21042;-66
2022/08/24 08:12:46;;;;;;;32.13;5.87;;;;;;;25.67;54.77;98254.95;1746392;78;21096;-65
2022/08/24 08:15:13;;;;;;;24.55;5.75;;;;;;;25.72;54.57;98251.84;1773710;79;21462;-66
2022/08/24 08:20:22;;;;;;;27.42;5.78;;;;;;;25.86;54.74;98252.53;1763112;79;21496;-64
2022/08/24 08:25:41;;;;;;;24.70;4.85;;;;;;;26.09;55.07;98257.72;1744999;81;21121;-65
2022/08/24 08:28:09;;;;;;;15.18;4.80;;;;;;;26.22;53.88;98252.91;1715031;79;21113;-64
2022/08/24 08:30:42;;;;;;;24.35;6.10;;;;;;;26.36;53.59;98261.77;1780737;79;21090;-65
2022/08/24 08:33:16;;;;;;;28.27;5.58;;;;;;;26.47;53.98;98261.23;1740856;79;21110;-66
2022/08/24 08:35:46;;;;;;;22.95;5.58;;;;;;;26.58;53.71;98260.67;1776226;79;21019;-65
2022/08/24 08:38:25;;;;;;;21.75;5.87;;;;;;;26.70;53.89;98265.01;1782965;79;21042;-66
2022/08/24 08:41:06;;;;;;;27.90;6.20;;;;;;;26.80;53.89;98259.58;1750997;81;21855;-67
2022/08/24 08:43:47;;;;;;;33.28;6.28;;;;;;;26.93;53.87;98259.38;1754078;79;21483;-65
2022/08/24 08:46:38;;;;;;;29.63;6.67;;;;;;;27.03;53.22;98261.36;1746887;80;21745;-65
2022/08/24 08:49:58;;;;;;;32.03;5.95;;;;;;;27.14;53.23;98262.73;1741614;80;20958;-65
2022/08/24 08:52:53;;;;;;;36.03;5.58;;;;;;;27.25;52.25;98263.50;1761281;80;21597;-65
2022/08/24 08:55:50;;;;;;;26.20;5.60;;;;;;;27.37;50.77;98266.47;1753391;79;21196;-66
2022/08/24 08:58:32;;;;;;;31.70;5.33;;;;;;;27.46;50.91;98266.88;1749405;80;21453;-65
2022/08/24 09:01:38;;;;;;;32.45;5.22;;;;;;;27.60;50.11;98274.53;1713823;79;21427;-66
2022/08/24 09:04:21;;;;;;;35.03;5.72;;;;;;;27.69;49.58;98268.61;1743730;80;21003;-64
2022/08/24 09:07:28;;;;;;;30.63;5.53;;;;;;;27.83;48.54;98269.95;1754931;79;21121;-66
2022/08/24 09:10:33;;;;;;;26.45;4.75;;;;;;;27.93;48.30;98270.52;1751720;79;21119;-64
2022/08/24 09:13:51;;;;;;;25.92;4.72;;;;;;;28.05;47.94;98274.23;1759139;79;21105;-65
2022/08/24 09:16:48;;;;;;;25.97;4.72;;;;;;;28.13;47.53;98278.54;1743162;80;21034;-64
2022/08/24 09:19:34;;;;;;;29.37;5.53;;;;;;;28.26;46.82;98274.77;1701365;79;21130;-65
2022/08/24 09:22:15;;;;;;;34.15;5.45;;;;;;;28.36;46.28;98276.08;1767357;79;21048;-66
2022/08/24 09:25:00;;;;;;;26.90;5.45;;;;;;;28.46;46.45;98278.59;1780521;79;21233;-64
2022/08/24 09:27:59;;;;;;;35.17;4.50;;;;;;;28.57;46.44;98271.66;1761212;79;21533;-67
2022/08/24 09:30:47;;;;;;;30.48;5.00;;;;;;;28.67;46.81;98270.83;1733814;81;21588;-66
2022/08/24 09:33:22;;;;;;;40.48;4.58;;;;;;;28.79;46.63;98269.78;1733097;80;21005;-65
2022/08/24 09:36:13;;;;;;;31.73;4.55;;;;;;;28.91;44.97;98271.27;1740484;80;21475;-66
2022/08/24 09:38:59;;;;;;;26.80;4.42;;;;;;;29.00;44.33;98271.59;1737937;80;21019;-66
2022/08/24 09:42:02;;;;;;;26.75;4.72;;;;;;;29.05;42.80;98271.17;1746194;80;20895;-69
2022/08/24 09:45:07;;;;;;;21.85;4.72;;;;;;;29.07;42.92;98274.30;1741160;80;21095;-67
2022/08/24 09:48:05;;;;;;;27.15;4.78;;;;;;;29.10;43.18;98276.26;1726843;81;21084;-67
2022/08/24 09:51:03;;;;;;;23.00;4.72;;;;;;;29.16;42.47;98267.73;1760939;81;21775;-65
2022/08/24 09:54:02;;;;;;;26.00;5.20;;;;;;;29.19;43.02;98268.33;1741361;80;21079;-67
2022/08/24 09:56:56;;;;;;;19.77;4.22;;;;;;;29.28;43.31;98268.64;1759250;79;21446;-66
2022/08/24 09:59:44;;;;;;;28.77;4.80;;;;;;;29.40;42.29;98264.02;1747811;80;21081;-65
2022/08/24 10:02:40;;;;;;;19.73;4.30;;;;;;;29.54;41.35;98269.40;1750837;81;21066;-67
2022/08/24 10:05:27;;;;;;;14.98;4.25;;;;;;;29.62;41.02;98269.53;1743495;81;21552;-67
2022/08/24 10:08:25;;;;;;;19.55;4.45;;;;;;;29.70;41.53;98265.49;1747965;80;21058;-66
2022/08/24 10:11:26;;;;;;;19.55;4.12;;;;;;;29.81;41.96;98263.25;1732750;82;21018;-66
2022/08/24 10:14:33;;;;;;;21.15;4.03;;;;;;;29.94;41.81;98262.31;1736151;80;21059;-65
2022/08/24 10:17:37;;;;;;;11.55;3.62;;;;;;;30.05;38.32;98260.83;1766889;79;21145;-65
2022/08/24 10:20:33;;;;;;;16.42;3.60;;;;;;;30.09;37.39;98260.17;1742911;80;21097;-66
2022/08/24 10:23:43;;;;;;;14.78;3.70;;;;;;;30.13;37.94;98264.45;1725019;82;21210;-66
2022/08/24 10:26:23;;;;;;;13.68;3.50;;;;;;;30.20;36.77;98267.73;1710703;82;21024;-65
2022/08/24 10:29:19;;;;;;;17.73;4.20;;;;;;;30.23;37.30;98260.00;1725166;81;21499;-65
2022/08/24 10:32:20;;;;;;;22.37;4.10;;;;;;;30.26;36.56;98268.27;1728092;80;21110;-67
2022/08/24 10:35:15;;;;;;;15.13;3.70;;;;;;;30.27;35.93;98267.05;1706748;81;21057;-65
2022/08/24 10:41:11;;;;;;;13.08;3.45;;;;;;;30.25;36.72;98264.52;1737273;80;21474;-65
2022/08/24 10:44:13;;;;;;;21.02;3.83;;;;;;;30.12;35.21;98270.41;1746316;80;21061;-67
2022/08/24 10:46:48;;;;;;;15.50;4.35;;;;;;;29.92;36.30;98271.61;1748400;80;20967;-68
2022/08/24 10:49:56;;;;;;;21.40;3.75;;;;;;;29.71;36.79;98271.21;1750417;80;21069;-69
2022/08/24 10:53:02;;;;;;;14.83;3.70;;;;;;;29.69;37.54;98273.60;1742147;81;21112;-65
2022/08/24 10:55:31;;;;;;;14.55;3.22;;;;;;;29.81;38.09;98269.56;1738042;80;20954;-67
2022/08/24 10:58:20;;;;;;;11.22;3.45;;;;;;;30.03;39.00;98267.36;1694318;82;21082;-68
2022/08/24 11:00:48;;;;;;;12.88;3.72;;;;;;;30.18;38.96;98267.36;1690875;83;21110;-67
2022/08/24 11:03:21;;;;;;;10.50;3.65;;;;;;;30.33;39.48;98264.06;1685483;82;21063;-66
2022/08/24 11:05:55;;;;;;;12.68;4.22;;;;;;;30.50;39.38;98263.64;1744118;81;21115;-65
2022/08/24 11:08:32;;;;;;;12.85;4.42;;;;;;;30.54;39.50;98264.37;1753183;80;21426;-66
2022/08/24 11:11:12;;;;;;;14.03;4.30;;;;;;;30.36;40.26;98265.21;1713929;80;21020;-67
2022/08/24 11:14:15;;;;;;;14.58;4.15;;;;;;;30.17;40.50;98269.33;1765811;80;21549;-67
2022/08/24 11:16:45;;;;;;;15.13;4.40;;;;;;;30.01;40.94;98268.34;1745453;81;21019;-66
2022/08/24 11:19:16;;;;;;;12.30;3.85;;;;;;;29.86;41.87;98277.41;1760377;81;21192;-66
2022/08/24 11:21:51;;;;;;;16.85;4.20;;;;;;;29.75;42.58;98271.95;1752385;81;20991;-64
2022/08/24 11:24:23;;;;;;;16.95;4.10;;;;;;;29.67;42.27;98276.58;1756758;81;20974;-65
2022/08/24 11:26:55;;;;;;;14.55;3.80;;;;;;;29.62;42.27;98272.30;1743192;80;21511;-68
2022/08/24 11:29:47;;;;;;;14.00;4.08;;;;;;;29.62;42.68;98275.05;1757873;80;20886;-64
2022/08/24 11:32:44;;;;;;;14.40;4.30;;;;;;;29.76;43.46;98273.56;1762363;80;21651;-65
2022/08/24 11:35:35;;;;;;;14.55;4.37;;;;;;;30.11;42.25;98272.38;1760234;80;20970;-65
2022/08/24 11:38:16;;;;;;;10.48;3.87;;;;;;;30.60;42.09;98270.98;1745928;80;21050;-64
2022/08/24 11:40:52;;;;;;;16.35;3.95;;;;;;;31.05;39.40;98272.33;1744360;81;21485;-63
2022/08/24 11:43:52;;;;;;;12.88;4.05;;;;;;;31.36;38.85;98273.61;1738668;81;21019;-67
2022/08/24 11:46:45;;;;;;;17.62;4.40;;;;;;;31.64;37.44;98263.45;1719441;82;21140;-66
2022/08/24 11:49:21;;;;;;;15.48;3.90;;;;;;;31.88;36.48;98264.98;1735040;81;21076;-67
2022/08/24 11:51:54;;;;;;;;;;;;;;;32.10;36.36;98267.56;1746401;81;21084;-66
2022/08/24 11:54:52;;;;;;;5.30;3.35;;;;;;;32.26;36.91;98268.22;1743302;80;20071;-66
2022/08/24 11:57:56;;;;;;;12.73;3.25;;;;;;;32.46;37.32;98263.42;1706272;83;21914;-65
2022/08/24 12:00:25;;;;;;;13.10;3.70;;;;;;;32.76;36.19;98263.80;1707451;83;21711;-65
2022/08/24 12:03:25;;;;;;;13.45;3.37;;;;;;;33.05;34.99;98264.12;1707301;81;20977;-65
2022/08/24 12:06:27;;;;;;;9.78;3.50;;;;;;;33.21;33.43;98264.72;1721083;81;20991;-65
2022/08/24 12:09:25;;;;;;;15.10;3.55;;;;;;;33.23;33.07;98263.70;1720797;80;20995;-66
2022/08/24 12:12:09;;;;;;;12.33;3.05;;;;;;;33.33;33.83;98265.41;1766760;80;21541;-65
2022/08/24 12:15:01;;;;;;;13.45;3.42;;;;;;;33.48;33.42;98268.61;1739879;81;21122;-68
2022/08/24 12:17:42;;;;;;;11.38;3.00;;;;;;;33.43;33.06;98276.08;1742613;81;21121;-68
2022/08/24 12:20:35;;;;;;;11.12;3.00;;;;;;;33.26;31.81;98266.97;1743101;80;20966;-64
2022/08/24 12:23:10;;;;;;;12.43;2.98;;;;;;;33.19;31.27;98265.76;1753420;80;20984;-66
2022/08/24 12:28:42;;;;;;;8.20;2.77;;;;;;;33.18;31.15;98262.83;1773174;79;21192;-67